createdAt,value
2022-08-12T00:00:34.785Z,50.866821
2022-08-12T00:02:02.644Z,50.866795
2022-08-12T00:02:35.753Z,50.866798
2022-08-12T00:03:34.815Z,50.866852
2022-08-12T00:04:34.738Z,50.866814
2022-08-12T00:05:34.733Z,50.866756
2022-08-12T00:06:34.731Z,50.866806
2022-08-12T00:07:34.730Z,50.866776
2022-08-12T00:08:37.021Z,50.866749
2022-08-12T00:09:34.700Z,50.866737
2022-08-12T00:10:34.692Z,50.866787
2022-08-12T00:11:34.687Z,50.866798
2022-08-12T00:12:34.738Z,50.866749
2022-08-12T00:13:34.659Z,50.866619
2022-08-12T00:14:35.658Z,50.866608
2022-08-12T00:15:34.651Z,50.866684
2022-08-12T00:16:34.648Z,50.866711
2022-08-12T00:17:34.658Z,50.866760
2022-08-12T00:18:34.629Z,50.866791
2022-08-12T00:19:34.625Z,50.866917
2022-08-12T00:20:34.616Z,50.867001
2022-08-12T00:21:35.859Z,50.866882
2022-08-12T00:22:34.682Z,50.866898
2022-08-12T00:23:34.591Z,50.866810
2022-08-12T00:24:34.588Z,50.866905
2022-08-12T00:26:01.392Z,50.866940
2022-08-12T00:26:35.563Z,50.866795
2022-08-12T00:27:43.978Z,50.866810
2022-08-12T00:28:35.558Z,50.866791
2022-08-12T00:29:34.553Z,50.866768
2022-08-12T00:30:34.544Z,50.866863
2022-08-12T00:46:36.450Z,50.866646
2022-08-12T00:47:36.444Z,50.866764
2022-08-12T00:48:36.415Z,50.866699
2022-08-12T00:49:36.411Z,50.866806
2022-08-12T00:50:36.417Z,50.866772
2022-08-12T00:51:36.402Z,50.866753
2022-08-12T00:52:36.387Z,50.866776
2022-08-12T00:53:36.387Z,50.866756
2022-08-12T00:54:36.375Z,50.866756
2022-08-12T00:55:36.382Z,50.866711
2022-08-12T00:56:36.360Z,50.866707
2022-08-12T00:57:37.326Z,50.866711
2022-08-12T00:58:36.340Z,50.866737
2022-08-12T00:59:36.330Z,50.866711
2022-08-12T01:00:36.334Z,50.866741
2022-08-12T01:02:02.422Z,50.866814
2022-08-12T01:02:37.310Z,50.866756
2022-08-12T01:03:36.300Z,50.866737
2022-08-12T01:04:36.300Z,50.866714
2022-08-12T01:05:36.294Z,50.866699
2022-08-12T01:06:36.279Z,50.866714
2022-08-12T01:07:36.265Z,50.866734
2022-08-12T01:08:36.248Z,50.866714
2022-08-12T01:09:36.251Z,50.866764
2022-08-12T01:10:36.244Z,50.866714
2022-08-12T01:11:36.234Z,50.866676
2022-08-12T01:12:36.217Z,50.866673
2022-08-12T01:13:36.207Z,50.866699
2022-08-12T01:14:36.207Z,50.866714
2022-08-12T01:15:36.193Z,50.866760
2022-08-12T01:16:36.190Z,50.866745
2022-08-12T01:17:36.188Z,50.866745
2022-08-12T01:18:36.180Z,50.866779
2022-08-12T01:19:36.827Z,50.866779
2022-08-12T01:20:36.162Z,50.866779
2022-08-12T01:21:36.147Z,50.866776
2022-08-12T01:22:36.137Z,50.866737
2022-08-12T01:23:36.142Z,50.866718
2022-08-12T01:24:36.134Z,50.866699
2022-08-12T01:25:41.052Z,50.866718
2022-08-12T01:26:38.109Z,50.866699
2022-08-12T01:27:36.098Z,50.866756
2022-08-12T01:28:36.085Z,50.866825
2022-08-12T01:29:36.075Z,50.866825
2022-08-12T01:30:36.073Z,50.866825
2022-08-12T01:31:36.071Z,50.866749
2022-08-12T01:32:36.065Z,50.866772
2022-08-12T01:33:36.039Z,50.866779
2022-08-12T01:34:37.397Z,50.866760
2022-08-12T01:35:36.032Z,50.866787
2022-08-12T01:36:36.037Z,50.866772
2022-08-12T01:37:36.027Z,50.866756
2022-08-12T01:38:36.000Z,50.866745
2022-08-12T01:39:36.038Z,50.866734
2022-08-12T01:40:37.866Z,50.866810
2022-08-12T01:41:36.995Z,50.866833
2022-08-12T01:42:35.977Z,50.866779
2022-08-12T01:43:35.967Z,50.866806
2022-08-12T01:44:35.958Z,50.866798
2022-08-12T01:45:40.666Z,50.866871
2022-08-12T01:46:36.945Z,50.866840
2022-08-12T01:47:35.945Z,50.866810
2022-08-12T01:48:35.910Z,50.866886
2022-08-12T01:49:35.912Z,50.866848
2022-08-12T01:50:35.912Z,50.866859
2022-08-12T01:52:15.305Z,50.866753
2022-08-12T01:52:36.888Z,50.866756
2022-08-12T01:53:50.760Z,50.866791
2022-08-12T01:54:36.869Z,50.866772
2022-08-12T01:55:35.877Z,50.866734
2022-08-12T01:56:35.850Z,50.866714
2022-08-12T01:57:57.740Z,50.866714
2022-08-12T01:58:36.844Z,50.866714
2022-08-12T01:59:35.826Z,50.866791
2022-08-12T02:00:43.333Z,50.866745
2022-08-12T02:01:36.841Z,50.866840
2022-08-12T02:02:35.854Z,50.866810
2022-08-12T02:03:35.810Z,50.866795
2022-08-12T02:04:35.794Z,50.866817
2022-08-12T02:05:35.782Z,50.866776
2022-08-12T02:06:35.776Z,50.866768
2022-08-12T02:07:35.770Z,50.866840
2022-08-12T02:08:35.766Z,50.866764
2022-08-12T02:09:35.780Z,50.866741
2022-08-12T02:10:50.314Z,50.866749
2022-08-12T02:11:36.749Z,50.866764
2022-08-12T02:12:35.729Z,50.866756
2022-08-12T02:13:48.522Z,50.866779
2022-08-12T02:14:38.422Z,50.866798
2022-08-12T02:15:35.704Z,50.866825
2022-08-12T02:16:35.703Z,50.866802
2022-08-12T02:17:55.852Z,50.866760
2022-08-12T02:18:36.690Z,50.866764
2022-08-12T02:19:35.687Z,50.866764
2022-08-12T02:20:50.882Z,50.866753
2022-08-12T02:21:36.659Z,50.866783
2022-08-12T02:22:35.647Z,50.866776
2022-08-12T02:23:35.636Z,50.866776
2022-08-12T02:24:35.639Z,50.866810
2022-08-12T02:25:35.630Z,50.866726
2022-08-12T02:26:35.620Z,50.866692
2022-08-12T02:27:35.625Z,50.866734
2022-08-12T02:28:35.609Z,50.866867
2022-08-12T02:29:35.600Z,50.866833
2022-08-12T02:30:41.586Z,50.866833
2022-08-12T02:31:36.583Z,50.866798
2022-08-12T02:32:35.598Z,50.866817
2022-08-12T02:33:35.559Z,50.866745
2022-08-12T02:34:35.551Z,50.866764
2022-08-12T02:35:35.549Z,50.866768
2022-08-12T02:36:35.533Z,50.866680
2022-08-12T02:37:35.531Z,50.866745
2022-08-12T02:38:35.511Z,50.866791
2022-08-12T02:39:35.567Z,50.866760
2022-08-12T02:40:35.501Z,50.866676
2022-08-12T02:41:35.489Z,50.866680
2022-08-12T02:42:35.545Z,50.866699
2022-08-12T02:43:35.471Z,50.866718
2022-08-12T02:44:35.463Z,50.866711
2022-08-12T02:45:35.458Z,50.866817
2022-08-12T02:46:35.449Z,50.866783
2022-08-12T02:48:00.048Z,50.866776
2022-08-12T02:48:36.474Z,50.866764
2022-08-12T02:49:35.434Z,50.866776
2022-08-12T02:50:35.428Z,50.866772
2022-08-12T02:51:35.419Z,50.866749
2022-08-12T02:52:35.522Z,50.866787
2022-08-12T02:53:36.969Z,50.866802
2022-08-12T02:54:35.386Z,50.866776
2022-08-12T02:55:35.388Z,50.866745
2022-08-12T02:56:35.385Z,50.866772
2022-08-12T02:57:35.373Z,50.866756
2022-08-12T02:58:35.371Z,50.866730
2022-08-12T02:59:35.352Z,50.866737
2022-08-12T03:00:35.336Z,50.866741
2022-08-12T03:01:35.414Z,50.866760
2022-08-12T03:02:36.325Z,50.866856
2022-08-12T03:03:35.326Z,50.866875
2022-08-12T03:04:37.894Z,50.866810
2022-08-12T03:05:38.430Z,50.866764
2022-08-12T03:06:36.291Z,50.866806
2022-08-12T03:07:56.463Z,50.866783
2022-08-12T03:08:36.273Z,50.866756
2022-08-12T03:10:03.806Z,50.866726
2022-08-12T03:10:37.509Z,50.866737
2022-08-12T03:11:37.744Z,50.866726
2022-08-12T03:12:35.350Z,50.866745
2022-08-12T03:13:36.221Z,50.866776
2022-08-12T03:14:35.231Z,50.866821
2022-08-12T03:15:35.221Z,50.866886
2022-08-12T03:16:36.922Z,50.866898
2022-08-12T03:17:35.202Z,50.866898
2022-08-12T03:18:35.862Z,50.866859
2022-08-12T03:19:35.182Z,50.866783
2022-08-12T03:20:35.183Z,50.866741
2022-08-12T03:21:55.369Z,50.866734
2022-08-12T03:22:36.157Z,50.866730
2022-08-12T03:23:35.142Z,50.866714
2022-08-12T03:24:35.139Z,50.866737
2022-08-12T03:25:35.137Z,50.866776
2022-08-12T03:26:35.123Z,50.866772
2022-08-12T03:27:35.130Z,50.866768
2022-08-12T03:28:35.873Z,50.866760
2022-08-12T03:29:50.162Z,50.866753
2022-08-12T03:30:36.097Z,50.866756
2022-08-12T03:31:35.182Z,50.866756
2022-08-12T03:32:36.697Z,50.866730
2022-08-12T03:33:35.069Z,50.866730
2022-08-12T03:34:35.068Z,50.866753
2022-08-12T03:35:40.245Z,50.866814
2022-08-12T03:36:36.187Z,50.866829
2022-08-12T03:37:35.055Z,50.866760
2022-08-12T03:38:35.027Z,50.866753
2022-08-12T03:39:36.158Z,50.866714
2022-08-12T03:40:35.014Z,50.866707
2022-08-12T03:41:35.020Z,50.866730
2022-08-12T03:42:35.009Z,50.866714
2022-08-12T03:43:35.003Z,50.866745
2022-08-12T03:44:34.977Z,50.866756
2022-08-12T03:45:34.962Z,50.866749
2022-08-12T03:46:35.973Z,50.866730
2022-08-12T03:47:34.967Z,50.866711
2022-08-12T03:48:34.977Z,50.866722
2022-08-12T03:49:34.949Z,50.866726
2022-08-12T03:50:34.926Z,50.866745
2022-08-12T03:51:34.911Z,50.866745
2022-08-12T03:52:34.943Z,50.866787
2022-08-12T03:53:34.906Z,50.866734
2022-08-12T03:54:38.234Z,50.866737
2022-08-12T03:55:35.881Z,50.866722
2022-08-12T03:56:34.882Z,50.866772
2022-08-12T03:57:34.892Z,50.866776
2022-08-12T03:58:34.859Z,50.866760
2022-08-12T03:59:34.860Z,50.866699
2022-08-12T04:00:34.889Z,50.866772
2022-08-12T04:01:40.753Z,50.866810
2022-08-12T04:02:35.830Z,50.866779
2022-08-12T04:03:34.827Z,50.866787
2022-08-12T04:04:34.912Z,50.866779
2022-08-12T04:05:56.227Z,50.866776
2022-08-12T04:06:36.070Z,50.866791
2022-08-12T04:07:34.805Z,50.866756
2022-08-12T04:08:34.777Z,50.866795
2022-08-12T04:09:34.772Z,50.866810
2022-08-12T04:10:34.772Z,50.866795
2022-08-12T04:11:34.755Z,50.866764
2022-08-12T04:12:35.785Z,50.866703
2022-08-12T04:13:34.744Z,50.866734
2022-08-12T04:14:34.745Z,50.866795
2022-08-12T04:15:34.718Z,50.866753
2022-08-12T04:16:34.720Z,50.866764
2022-08-12T04:17:34.735Z,50.866734
2022-08-12T04:18:34.696Z,50.866692
2022-08-12T04:19:34.701Z,50.866692
2022-08-12T04:20:34.682Z,50.866821
2022-08-12T04:21:34.695Z,50.866772
2022-08-12T04:22:34.702Z,50.866688
2022-08-12T04:23:34.655Z,50.866695
2022-08-12T04:24:35.407Z,50.866730
2022-08-12T04:25:34.637Z,50.866692
2022-08-12T04:26:34.629Z,50.866604
2022-08-12T04:27:34.648Z,50.866817
2022-08-12T04:28:34.633Z,50.866791
2022-08-12T04:30:21.459Z,50.866795
2022-08-12T04:30:35.596Z,50.866795
2022-08-12T04:31:34.606Z,50.866753
2022-08-12T04:32:34.595Z,50.866749
2022-08-12T04:33:34.583Z,50.866772
2022-08-12T04:34:34.567Z,50.866768
2022-08-12T04:35:35.381Z,50.866776
2022-08-12T04:36:34.552Z,50.866810
2022-08-12T04:37:59.045Z,50.866764
2022-08-12T04:38:35.537Z,50.866879
2022-08-12T04:39:34.591Z,50.866802
2022-08-12T04:40:34.512Z,50.866879
2022-08-12T04:41:34.502Z,50.866688
2022-08-12T04:42:34.499Z,50.866772
2022-08-12T04:44:00.724Z,50.866764
2022-08-12T04:44:35.487Z,50.866676
2022-08-12T04:45:34.473Z,50.866840
2022-08-12T04:46:34.802Z,50.867065
2022-08-12T04:47:34.458Z,50.866882
2022-08-12T04:48:34.457Z,50.866852
2022-08-12T04:49:34.448Z,50.866909
2022-08-12T04:50:37.053Z,50.866890
2022-08-12T04:51:34.418Z,50.866882
2022-08-12T04:52:35.021Z,50.867050
2022-08-12T04:53:35.415Z,50.866955
2022-08-12T04:54:34.403Z,50.867012
2022-08-12T04:55:34.443Z,50.866795
2022-08-12T04:56:35.655Z,50.866829
2022-08-12T04:57:34.390Z,50.867027
2022-08-12T04:58:34.375Z,50.867092
2022-08-12T04:59:47.809Z,50.867149
2022-08-12T05:00:35.352Z,50.866959
2022-08-12T05:01:34.361Z,50.866825
2022-08-12T05:02:34.493Z,50.866787
2022-08-12T05:03:45.912Z,50.866764
2022-08-12T05:04:35.359Z,50.866798
2022-08-12T05:05:36.258Z,50.866886
2022-08-12T05:06:35.307Z,50.866875
2022-08-12T05:07:34.313Z,50.866985
2022-08-12T05:08:35.297Z,50.867027
2022-08-12T05:09:58.840Z,50.867027
2022-08-12T05:10:36.039Z,50.866886
2022-08-12T05:11:34.267Z,50.866875
2022-08-12T05:12:34.308Z,50.866940
2022-08-12T05:13:34.246Z,50.867165
2022-08-12T05:14:37.489Z,50.866928
2022-08-12T05:15:36.033Z,50.866631
2022-08-12T05:16:36.187Z,50.866722
2022-08-12T05:17:34.221Z,50.866791
2022-08-12T05:18:35.090Z,50.867016
2022-08-12T05:19:35.210Z,50.867126
2022-08-12T05:20:34.199Z,50.867138
2022-08-12T05:21:34.180Z,50.867180
2022-08-12T05:22:36.954Z,50.867214
2022-08-12T05:23:34.165Z,50.867107
2022-08-12T05:24:34.159Z,50.867195
2022-08-12T05:25:34.157Z,50.866985
2022-08-12T05:26:34.133Z,50.866970
2022-08-12T05:27:34.137Z,50.866837
2022-08-12T05:28:34.127Z,50.866753
2022-08-12T05:30:07.165Z,50.866718
2022-08-12T05:30:35.107Z,50.866741
2022-08-12T05:31:45.536Z,50.866764
2022-08-12T05:32:35.092Z,50.866806
2022-08-12T05:33:34.077Z,50.866837
2022-08-12T05:34:34.082Z,50.866810
2022-08-12T05:35:34.073Z,50.866566
2022-08-12T05:36:34.057Z,50.866634
2022-08-12T05:37:34.063Z,50.866589
2022-08-12T05:38:34.044Z,50.866692
2022-08-12T05:39:34.047Z,50.866711
2022-08-12T05:40:34.026Z,50.866619
2022-08-12T05:41:34.017Z,50.866570
2022-08-12T05:42:34.674Z,50.866741
2022-08-12T05:43:34.004Z,50.866535
2022-08-12T05:44:33.999Z,50.866375
2022-08-12T05:45:33.996Z,50.866734
2022-08-12T05:46:33.998Z,50.866863
2022-08-12T05:47:42.768Z,50.866840
2022-08-12T05:48:34.971Z,50.866623
2022-08-12T05:49:34.994Z,50.866657
2022-08-12T05:50:33.950Z,50.866776
2022-08-12T05:51:40.129Z,50.867001
2022-08-12T05:52:35.029Z,50.867096
2022-08-12T05:53:33.927Z,50.866905
2022-08-12T05:54:56.185Z,50.866802
2022-08-12T05:55:35.938Z,50.866867
2022-08-12T05:56:33.895Z,50.866966
2022-08-12T05:57:33.897Z,50.866783
2022-08-12T05:58:33.881Z,50.866776
2022-08-12T05:59:33.879Z,50.866749
2022-08-12T06:00:33.864Z,50.866749
2022-08-12T06:02:10.686Z,50.866707
2022-08-12T06:02:34.863Z,50.866703
2022-08-12T06:03:33.957Z,50.866707
2022-08-12T06:04:33.832Z,50.866711
2022-08-12T06:05:33.821Z,50.866699
2022-08-12T06:06:39.125Z,50.866737
2022-08-12T06:07:59.630Z,50.866772
2022-08-12T06:08:34.800Z,50.866779
2022-08-12T06:09:33.792Z,50.866825
2022-08-12T06:10:33.815Z,50.866894
2022-08-12T06:11:34.492Z,50.866886
2022-08-12T06:12:33.774Z,50.866886
2022-08-12T06:13:54.339Z,50.866871
2022-08-12T06:14:34.758Z,50.866974
2022-08-12T06:15:33.751Z,50.866947
2022-08-12T06:16:33.733Z,50.866787
2022-08-12T06:17:33.753Z,50.866783
2022-08-12T06:18:33.728Z,50.866749
2022-08-12T06:20:28.036Z,50.866821
2022-08-12T06:20:34.753Z,50.866688
2022-08-12T06:21:33.707Z,50.866695
2022-08-12T06:22:33.688Z,50.866650
2022-08-12T06:23:33.687Z,50.866627
2022-08-12T06:24:33.672Z,50.866642
2022-08-12T06:25:33.670Z,50.866634
2022-08-12T06:26:33.657Z,50.866707
2022-08-12T06:27:33.681Z,50.866707
2022-08-12T06:28:33.642Z,50.866714
2022-08-12T06:30:07.273Z,50.866661
2022-08-12T06:30:38.069Z,50.866669
2022-08-12T06:31:34.634Z,50.866653
2022-08-12T06:32:34.618Z,50.866714
2022-08-12T06:33:55.073Z,50.866703
2022-08-12T06:35:24.027Z,50.866810
2022-08-12T06:35:48.438Z,50.866749
2022-08-12T06:36:34.590Z,50.866673
2022-08-12T06:37:33.567Z,50.866688
2022-08-12T06:38:33.620Z,50.866699
2022-08-12T06:39:33.636Z,50.866776
2022-08-12T06:40:33.624Z,50.866753
2022-08-12T06:41:33.536Z,50.866779
2022-08-12T06:42:33.675Z,50.866707
2022-08-12T06:44:06.864Z,50.866737
2022-08-12T06:44:34.555Z,50.866734
2022-08-12T06:45:45.222Z,50.866722
2022-08-12T06:46:34.504Z,50.866745
2022-08-12T06:47:33.486Z,50.866779
2022-08-12T06:48:33.479Z,50.866753
2022-08-12T06:49:33.538Z,50.866802
2022-08-12T06:50:38.109Z,50.866779
2022-08-12T06:51:33.472Z,50.866795
2022-08-12T06:52:33.462Z,50.866768
2022-08-12T06:53:34.021Z,50.866856
2022-08-12T06:54:33.446Z,50.866714
2022-08-12T06:55:33.432Z,50.866756
2022-08-12T06:57:02.937Z,50.866745
2022-08-12T06:58:05.262Z,50.866779
2022-08-12T06:58:34.454Z,50.866840
2022-08-12T06:59:33.404Z,50.866837
2022-08-12T07:00:33.494Z,50.866787
2022-08-12T07:01:33.493Z,50.866779
2022-08-12T07:02:36.877Z,50.866749
2022-08-12T07:03:34.366Z,50.866711
2022-08-12T07:04:37.876Z,50.866730
2022-08-12T07:05:35.374Z,50.866806
2022-08-12T07:06:33.333Z,50.866798
2022-08-12T07:07:33.330Z,50.866783
2022-08-12T07:08:33.321Z,50.866798
2022-08-12T07:10:05.528Z,50.866856
2022-08-12T07:10:34.315Z,50.866810
2022-08-12T07:11:33.296Z,50.866730
2022-08-12T07:12:33.293Z,50.866756
2022-08-12T07:13:33.277Z,50.866695
2022-08-12T07:14:35.411Z,50.866776
2022-08-12T07:15:34.269Z,50.866875
2022-08-12T07:16:33.263Z,50.866882
2022-08-12T07:17:33.269Z,50.866920
2022-08-12T07:18:33.232Z,50.866993
2022-08-12T07:19:40.686Z,50.867050
2022-08-12T07:20:51.744Z,50.867012
2022-08-12T07:22:00.014Z,50.866943
2022-08-12T07:22:34.211Z,50.866951
2022-08-12T07:23:33.196Z,50.866821
2022-08-12T07:24:33.196Z,50.866802
2022-08-12T07:25:37.403Z,50.866970
2022-08-12T07:26:34.181Z,50.867020
2022-08-12T07:27:33.183Z,50.866726
2022-08-12T07:28:33.163Z,50.867058
2022-08-12T07:29:58.125Z,50.867355
2022-08-12T07:30:34.170Z,50.867428
2022-08-12T07:31:34.028Z,50.867481
2022-08-12T07:32:33.119Z,50.867260
2022-08-12T07:33:33.113Z,50.866936
2022-08-12T07:34:33.146Z,50.866875
2022-08-12T07:35:33.144Z,50.866684
2022-08-12T07:36:33.087Z,50.866661
2022-08-12T07:37:33.098Z,50.866730
2022-08-12T07:38:33.110Z,50.866806
2022-08-12T07:39:33.117Z,50.866791
2022-08-12T07:40:33.067Z,50.866825
2022-08-12T07:41:33.055Z,50.866798
2022-08-12T07:42:33.040Z,50.866806
2022-08-12T07:43:33.036Z,50.866787
2022-08-12T07:44:33.013Z,50.866772
2022-08-12T07:45:34.039Z,50.866798
2022-08-12T07:46:33.554Z,50.866783
2022-08-12T07:47:33.029Z,50.866840
2022-08-12T07:48:32.989Z,50.866783
2022-08-12T07:49:33.004Z,50.866653
2022-08-12T07:50:33.984Z,50.866558
2022-08-12T07:51:32.999Z,50.866722
2022-08-12T07:52:32.979Z,50.866772
2022-08-12T07:53:32.948Z,50.866863
2022-08-12T07:54:33.943Z,50.866867
2022-08-12T07:55:32.956Z,50.866829
2022-08-12T07:56:32.941Z,50.866783
2022-08-12T07:57:32.951Z,50.866787
2022-08-12T07:58:32.913Z,50.866833
2022-08-12T07:59:32.908Z,50.866806
2022-08-12T08:00:32.920Z,50.866859
2022-08-12T08:01:33.003Z,50.866798
2022-08-12T08:02:32.884Z,50.866856
2022-08-12T08:03:32.911Z,50.866821
2022-08-12T08:04:32.872Z,50.866848
2022-08-12T08:05:32.870Z,50.866871
2022-08-12T08:06:32.855Z,50.866840
2022-08-12T08:07:32.861Z,50.866932
2022-08-12T08:08:32.859Z,50.866879
2022-08-12T08:09:32.832Z,50.866825
2022-08-12T08:10:32.818Z,50.866806
2022-08-12T08:11:32.823Z,50.866802
2022-08-12T08:12:32.811Z,50.866795
2022-08-12T08:13:32.838Z,50.866848
2022-08-12T08:14:32.811Z,50.866859
2022-08-12T08:16:02.902Z,50.866837
2022-08-12T08:16:34.775Z,50.866886
2022-08-12T08:17:32.775Z,50.866886
2022-08-12T08:18:33.768Z,50.866917
2022-08-12T08:19:32.751Z,50.866848
2022-08-12T08:20:32.751Z,50.866829
2022-08-12T08:21:32.740Z,50.866817
2022-08-12T08:22:41.511Z,50.866840
2022-08-12T08:23:35.160Z,50.866810
2022-08-12T08:24:32.711Z,50.866821
2022-08-12T08:25:36.145Z,50.866833
2022-08-12T08:26:32.706Z,50.866814
2022-08-12T08:27:32.710Z,50.866837
2022-08-12T08:28:33.476Z,50.866806
2022-08-12T08:29:32.667Z,50.866776
2022-08-12T08:30:32.684Z,50.866787
2022-08-12T08:31:32.672Z,50.866798
2022-08-12T08:32:32.647Z,50.866753
2022-08-12T08:34:05.038Z,50.866741
2022-08-12T08:34:53.997Z,50.866760
2022-08-12T08:35:46.455Z,50.866737
2022-08-12T08:36:33.623Z,50.866791
2022-08-12T08:37:33.444Z,50.866856
2022-08-12T08:38:35.369Z,50.866699
2022-08-12T08:39:33.656Z,50.866741
2022-08-12T08:40:32.580Z,50.866810
2022-08-12T08:42:16.101Z,50.866905
2022-08-12T08:42:33.588Z,50.866928
2022-08-12T08:43:44.250Z,50.867001
2022-08-12T08:44:33.546Z,50.866943
2022-08-12T08:45:32.537Z,50.866882
2022-08-12T08:46:32.551Z,50.867031
2022-08-12T08:47:32.547Z,50.867260
2022-08-12T08:48:32.520Z,50.867249
2022-08-12T08:49:32.511Z,50.867447
2022-08-12T08:50:32.505Z,50.867718
2022-08-12T08:51:32.502Z,50.867905
2022-08-12T08:52:39.732Z,50.867962
2022-08-12T08:53:33.498Z,50.867683
2022-08-12T08:54:32.474Z,50.867638
2022-08-12T08:56:01.307Z,50.867569
2022-08-12T08:56:34.476Z,50.867146
2022-08-12T08:57:44.080Z,50.866734
2022-08-12T08:58:34.455Z,50.866333
2022-08-12T08:59:32.444Z,50.866386
2022-08-12T09:00:32.438Z,50.866600
2022-08-12T09:01:37.888Z,50.866531
2022-08-12T09:02:34.064Z,50.866291
2022-08-12T09:05:08.301Z,50.866184
2022-08-12T09:05:12.245Z,50.866154
2022-08-12T09:06:01.484Z,50.866199
2022-08-12T09:06:37.917Z,50.866554
2022-08-12T09:07:51.628Z,50.866627
2022-08-12T09:08:33.417Z,50.866608
2022-08-12T09:10:01.397Z,50.866627
2022-08-12T09:10:33.353Z,50.866631
2022-08-12T09:12:07.198Z,50.866642
2022-08-12T09:12:33.345Z,50.866741
2022-08-12T09:14:10.906Z,50.866768
2022-08-12T09:14:33.330Z,50.866730
2022-08-12T09:15:35.683Z,50.866749
2022-08-12T09:16:32.837Z,50.866692
2022-08-12T09:17:42.795Z,50.866718
2022-08-12T09:18:34.070Z,50.866730
2022-08-12T09:19:32.284Z,50.866711
2022-08-12T09:20:32.331Z,50.866684
2022-08-12T09:21:54.779Z,50.866676
2022-08-12T09:22:35.138Z,50.866642
2022-08-12T09:23:59.871Z,50.866661
2022-08-12T09:24:33.240Z,50.866665
2022-08-12T09:26:45.940Z,50.866669
2022-08-12T09:28:04.366Z,50.866665
2022-08-12T09:28:33.223Z,50.866665
2022-08-12T09:30:11.581Z,50.866688
2022-08-12T09:30:42.292Z,50.866718
2022-08-12T09:32:03.728Z,50.866688
2022-08-12T09:33:04.379Z,50.866669
2022-08-12T09:34:25.591Z,50.866680
2022-08-12T09:34:34.045Z,50.866711
2022-08-12T09:35:33.179Z,50.866745
2022-08-12T09:36:57.827Z,50.866764
2022-08-12T09:37:57.989Z,50.866692
2022-08-12T09:38:33.134Z,50.866669
2022-08-12T09:40:05.678Z,50.866703
2022-08-12T09:40:57.288Z,50.866634
2022-08-12T09:42:09.703Z,50.866642
2022-08-12T09:42:43.434Z,50.866623
2022-08-12T09:43:33.149Z,50.866657
2022-08-12T09:44:38.886Z,50.866760
2022-08-12T09:46:11.176Z,50.866688
2022-08-12T09:46:34.560Z,50.866695
2022-08-12T09:47:33.447Z,50.866684
2022-08-12T09:48:34.988Z,50.866676
2022-08-12T09:49:32.052Z,50.866688
2022-08-12T09:50:32.046Z,50.866684
2022-08-12T09:51:37.646Z,50.866615
2022-08-12T09:52:33.033Z,50.866646
2022-08-12T09:54:33.713Z,50.866692
2022-08-12T09:54:35.449Z,50.866692
2022-08-12T09:56:05.696Z,50.866699
2022-08-12T09:56:58.682Z,50.866718
2022-08-12T09:58:46.933Z,50.866737
2022-08-12T09:58:57.854Z,50.866695
2022-08-12T10:00:17.382Z,50.866676
2022-08-12T10:00:43.269Z,50.866726
2022-08-12T10:01:35.380Z,50.866718
2022-08-12T10:02:43.054Z,50.866680
2022-08-12T10:03:33.255Z,50.866631
2022-08-12T10:04:31.989Z,50.866646
2022-08-12T10:06:26.194Z,50.866650
2022-08-12T10:06:36.321Z,50.866676
2022-08-12T10:07:40.082Z,50.866669
2022-08-12T10:08:32.890Z,50.866673
2022-08-12T10:09:58.071Z,50.866615
2022-08-12T10:10:32.887Z,50.866646
2022-08-12T10:12:10.443Z,50.866669
2022-08-12T10:12:33.669Z,50.866669
2022-08-12T10:13:36.874Z,50.866623
2022-08-12T10:14:34.385Z,50.866619
2022-08-12T10:16:02.144Z,50.866642
2022-08-12T10:16:39.169Z,50.866688
2022-08-12T10:17:33.822Z,50.866699
2022-08-12T10:18:51.848Z,50.866680
2022-08-12T10:19:36.370Z,50.866688
2022-08-12T10:20:35.542Z,50.866665
2022-08-12T10:21:36.517Z,50.866692
2022-08-12T10:22:36.669Z,50.866741
2022-08-12T10:23:39.317Z,50.866825
2022-08-12T10:24:32.766Z,50.866703
2022-08-12T10:26:33.985Z,50.866646
2022-08-12T10:26:37.309Z,50.866680
2022-08-12T10:28:04.062Z,50.866638
2022-08-12T10:28:32.742Z,50.866661
2022-08-12T10:30:01.285Z,50.866611
2022-08-12T10:30:39.929Z,50.866608
2022-08-12T10:31:46.864Z,50.866596
2022-08-12T10:32:45.135Z,50.866676
2022-08-12T10:33:32.698Z,50.866619
2022-08-12T10:34:32.681Z,50.866650
2022-08-12T10:35:38.313Z,50.866657
2022-08-12T10:36:39.898Z,50.866627
2022-08-12T10:38:34.847Z,50.866562
2022-08-12T10:38:41.092Z,50.866604
2022-08-12T10:40:02.817Z,50.866795
2022-08-12T10:40:37.707Z,50.866768
2022-08-12T10:41:58.786Z,50.866680
2022-08-12T10:42:32.626Z,50.866581
2022-08-12T10:43:55.237Z,50.866581
2022-08-12T10:44:32.612Z,50.866638
2022-08-12T10:45:31.624Z,50.866718
2022-08-12T10:46:32.056Z,50.866726
2022-08-12T10:48:19.638Z,50.866669
2022-08-12T10:48:34.788Z,50.866657
2022-08-12T10:50:02.793Z,50.866722
2022-08-12T10:51:01.465Z,50.866753
2022-08-12T10:52:04.853Z,50.866745
2022-08-12T10:52:37.931Z,50.866768
2022-08-12T10:53:45.018Z,50.866722
2022-08-12T10:54:34.121Z,50.866791
2022-08-12T10:55:31.521Z,50.866825
2022-08-12T10:56:34.598Z,50.866776
2022-08-12T10:58:15.559Z,50.866840
2022-08-12T10:58:32.505Z,50.866829
2022-08-12T11:00:29.079Z,50.866798
2022-08-12T11:00:35.582Z,50.866798
2022-08-12T11:04:16.847Z,50.866756
2022-08-12T11:04:27.370Z,50.866756
2022-08-12T11:04:32.101Z,50.866737
2022-08-12T11:04:45.292Z,50.866745
2022-08-12T11:07:06.571Z,50.866863
2022-08-12T11:07:08.653Z,50.866848
2022-08-12T11:08:35.971Z,50.866833
2022-08-12T11:08:42.934Z,50.866928
2022-08-12T11:09:42.038Z,50.866806
2022-08-12T11:10:33.074Z,50.866814
2022-08-12T11:12:35.094Z,50.866821
2022-08-12T11:12:55.346Z,50.866879
2022-08-12T11:13:45.752Z,50.866928
2022-08-12T11:14:49.357Z,50.866978
2022-08-12T11:16:02.914Z,50.866974
2022-08-12T11:16:31.362Z,50.866863
2022-08-12T11:17:52.808Z,50.867077
2022-08-12T11:18:32.344Z,50.866898
2022-08-12T11:19:31.332Z,50.866840
2022-08-12T11:20:35.131Z,50.866890
2022-08-12T11:21:58.273Z,50.866882
2022-08-12T11:22:35.036Z,50.866840
2022-08-12T11:23:36.849Z,50.866886
2022-08-12T11:24:35.479Z,50.866821
2022-08-12T11:25:42.293Z,50.866924
2022-08-12T11:26:34.056Z,50.866779
2022-08-12T11:27:31.375Z,50.866871
2022-08-12T11:28:33.290Z,50.866928
2022-08-12T11:30:02.529Z,50.866943
2022-08-12T11:30:32.247Z,50.866936
2022-08-12T11:31:55.988Z,50.867100
2022-08-12T11:32:39.114Z,50.867058
2022-08-12T11:34:04.544Z,50.866978
2022-08-12T11:34:51.882Z,50.867123
2022-08-12T11:35:32.213Z,50.867176
2022-08-12T11:36:31.204Z,50.867062
2022-08-12T11:37:31.160Z,50.866879
2022-08-12T11:38:32.172Z,50.866886
2022-08-12T11:40:03.035Z,50.866856
2022-08-12T11:40:32.132Z,50.866840